sensor_id;sensor_type;location;lat;lon;timestamp;temperature;humidity
20068;DHT22;10194;50.824;7.134;2022-08-19T00:01:38;17.90;99.90
20068;DHT22;10194;50.824;7.134;2022-08-19T00:04:09;17.90;99.90
20068;DHT22;10194;50.824;7.134;2022-08-19T00:06:39;17.90;99.90
20068;DHT22;10194;50.824;7.134;2022-08-19T00:09:07;17.80;99.90
20068;DHT22;10194;50.824;7.134;2022-08-19T00:11:36;17.80;99.90
20068;DHT22;10194;50.824;7.134;2022-08-19T00:14:04;17.80;99.90
20068;DHT22;10194;50.824;7.134;2022-08-19T00:16:31;17.80;99.90
20068;DHT22;10194;50.824;7.134;2022-08-19T00:18:57;17.80;99.90
20068;DHT22;10194;50.824;7.134;2022-08-19T00:21:25;17.80;99.90
20068;DHT22;10194;50.824;7.134;2022-08-19T00:23:52;17.80;99.90
20068;DHT22;10194;50.824;7.134;2022-08-19T00:26:20;17.80;99.90
20068;DHT22;10194;50.824;7.134;2022-08-19T00:28:46;17.70;99.90
20068;DHT22;10194;50.824;7.134;2022-08-19T00:31:12;17.70;99.90
20068;DHT22;10194;50.824;7.134;2022-08-19T00:33:38;17.70;99.90
20068;DHT22;10194;50.824;7.134;2022-08-19T00:36:06;17.60;99.90
20068;DHT22;10194;50.824;7.134;2022-08-19T00:38:35;17.50;99.90
20068;DHT22;10194;50.824;7.134;2022-08-19T00:41:03;17.60;99.90
20068;DHT22;10194;50.824;7.134;2022-08-19T00:43:30;17.60;99.90
20068;DHT22;10194;50.824;7.134;2022-08-19T00:45:56;17.70;99.90
20068;DHT22;10194;50.824;7.134;2022-08-19T00:48:22;17.80;99.90
20068;DHT22;10194;50.824;7.134;2022-08-19T00:50:50;17.70;99.90
20068;DHT22;10194;50.824;7.134;2022-08-19T00:53:21;17.60;99.90
20068;DHT22;10194;50.824;7.134;2022-08-19T00:55:51;17.50;99.90
20068;DHT22;10194;50.824;7.134;2022-08-19T00:58:21;17.40;99.90
20068;DHT22;10194;50.824;7.134;2022-08-19T01:00:48;17.40;99.90
20068;DHT22;10194;50.824;7.134;2022-08-19T01:03:17;17.40;99.90
20068;DHT22;10194;50.824;7.134;2022-08-19T01:05:45;17.40;99.90
20068;DHT22;10194;50.824;7.134;2022-08-19T01:08:14;17.30;99.90
20068;DHT22;10194;50.824;7.134;2022-08-19T01:10:49;17.30;99.90
20068;DHT22;10194;50.824;7.134;2022-08-19T01:13:19;17.30;99.90
20068;DHT22;10194;50.824;7.134;2022-08-19T01:15:54;17.30;99.90
20068;DHT22;10194;50.824;7.134;2022-08-19T01:18:22;17.30;99.90
20068;DHT22;10194;50.824;7.134;2022-08-19T01:20:50;17.20;99.90
20068;DHT22;10194;50.824;7.134;2022-08-19T01:23:18;17.20;99.90
20068;DHT22;10194;50.824;7.134;2022-08-19T01:30:51;17.20;99.90
20068;DHT22;10194;50.824;7.134;2022-08-19T01:33:17;17.10;99.90
20068;DHT22;10194;50.824;7.134;2022-08-19T01:35:45;17.20;99.90
20068;DHT22;10194;50.824;7.134;2022-08-19T01:38:22;17.10;99.90
20068;DHT22;10194;50.824;7.134;2022-08-19T01:40:50;17.10;99.90
20068;DHT22;10194;50.824;7.134;2022-08-19T01:43:16;17.10;99.90
20068;DHT22;10194;50.824;7.134;2022-08-19T01:45:43;17.20;99.90
20068;DHT22;10194;50.824;7.134;2022-08-19T01:48:09;17.20;99.90
20068;DHT22;10194;50.824;7.134;2022-08-19T01:50:36;17.20;99.90
20068;DHT22;10194;50.824;7.134;2022-08-19T01:53:05;17.20;99.90
20068;DHT22;10194;50.824;7.134;2022-08-19T01:55:41;17.20;99.90
20068;DHT22;10194;50.824;7.134;2022-08-19T01:58:19;17.10;99.90
20068;DHT22;10194;50.824;7.134;2022-08-19T02:00:47;17.10;99.90
20068;DHT22;10194;50.824;7.134;2022-08-19T02:03:13;17.00;99.90
20068;DHT22;10194;50.824;7.134;2022-08-19T02:05:40;17.00;99.90
20068;DHT22;10194;50.824;7.134;2022-08-19T02:08:06;16.90;99.90
20068;DHT22;10194;50.824;7.134;2022-08-19T02:10:33;16.90;99.90
20068;DHT22;10194;50.824;7.134;2022-08-19T02:12:59;16.90;99.90
20068;DHT22;10194;50.824;7.134;2022-08-19T02:15:25;16.90;99.90
20068;DHT22;10194;50.824;7.134;2022-08-19T02:17:51;16.90;99.90
20068;DHT22;10194;50.824;7.134;2022-08-19T02:20:17;16.80;99.90
20068;DHT22;10194;50.824;7.134;2022-08-19T02:22:43;16.90;99.90
20068;DHT22;10194;50.824;7.134;2022-08-19T02:25:13;16.80;99.90
20068;DHT22;10194;50.824;7.134;2022-08-19T02:27:40;16.80;99.90
20068;DHT22;10194;50.824;7.134;2022-08-19T02:30:09;16.80;99.90
20068;DHT22;10194;50.824;7.134;2022-08-19T02:32:37;16.80;99.90
20068;DHT22;10194;50.824;7.134;2022-08-19T02:35:03;16.80;99.90
20068;DHT22;10194;50.824;7.134;2022-08-19T02:37:29;16.80;99.90
20068;DHT22;10194;50.824;7.134;2022-08-19T02:40:13;16.80;99.90
20068;DHT22;10194;50.824;7.134;2022-08-19T02:42:40;16.90;99.90
20068;DHT22;10194;50.824;7.134;2022-08-19T02:45:06;16.80;99.90
20068;DHT22;10194;50.824;7.134;2022-08-19T02:47:36;16.80;99.90
20068;DHT22;10194;50.824;7.134;2022-08-19T02:50:02;16.80;99.90
20068;DHT22;10194;50.824;7.134;2022-08-19T02:52:29;16.80;99.90
20068;DHT22;10194;50.824;7.134;2022-08-19T02:54:55;16.80;99.90
20068;DHT22;10194;50.824;7.134;2022-08-19T02:57:23;16.80;99.90
20068;DHT22;10194;50.824;7.134;2022-08-19T02:59:49;16.80;99.90
20068;DHT22;10194;50.824;7.134;2022-08-19T03:02:15;16.80;99.90
20068;DHT22;10194;50.824;7.134;2022-08-19T03:04:41;16.70;99.90
20068;DHT22;10194;50.824;7.134;2022-08-19T03:07:08;16.80;99.90
20068;DHT22;10194;50.824;7.134;2022-08-19T03:09:37;16.70;99.90
20068;DHT22;10194;50.824;7.134;2022-08-19T03:12:04;16.70;99.90
20068;DHT22;10194;50.824;7.134;2022-08-19T03:14:31;16.80;99.90
20068;DHT22;10194;50.824;7.134;2022-08-19T03:16:58;16.80;99.90
20068;DHT22;10194;50.824;7.134;2022-08-19T03:19:23;16.80;99.90
20068;DHT22;10194;50.824;7.134;2022-08-19T03:21:50;16.80;99.90
20068;DHT22;10194;50.824;7.134;2022-08-19T03:24:18;16.70;99.90
20068;DHT22;10194;50.824;7.134;2022-08-19T03:26:48;16.70;99.90
20068;DHT22;10194;50.824;7.134;2022-08-19T03:29:25;16.60;99.90
20068;DHT22;10194;50.824;7.134;2022-08-19T03:31:52;16.60;99.90
20068;DHT22;10194;50.824;7.134;2022-08-19T03:34:25;16.60;99.90
20068;DHT22;10194;50.824;7.134;2022-08-19T03:36:54;16.70;99.90
20068;DHT22;10194;50.824;7.134;2022-08-19T03:39:22;16.70;99.90
20068;DHT22;10194;50.824;7.134;2022-08-19T03:41:50;16.60;99.90
20068;DHT22;10194;50.824;7.134;2022-08-19T03:44:20;16.70;99.90
20068;DHT22;10194;50.824;7.134;2022-08-19T03:46:53;16.70;99.90
20068;DHT22;10194;50.824;7.134;2022-08-19T03:49:22;16.60;99.90
20068;DHT22;10194;50.824;7.134;2022-08-19T03:51:49;16.60;99.90
20068;DHT22;10194;50.824;7.134;2022-08-19T03:54:18;16.60;99.90
20068;DHT22;10194;50.824;7.134;2022-08-19T03:56:47;16.60;99.90
20068;DHT22;10194;50.824;7.134;2022-08-19T03:59:31;16.60;99.90
20068;DHT22;10194;50.824;7.134;2022-08-19T04:02:00;16.60;99.90
20068;DHT22;10194;50.824;7.134;2022-08-19T04:04:27;16.60;99.90
20068;DHT22;10194;50.824;7.134;2022-08-19T04:06:54;16.60;99.90
20068;DHT22;10194;50.824;7.134;2022-08-19T04:09:20;16.60;99.90
20068;DHT22;10194;50.824;7.134;2022-08-19T04:11:49;16.50;99.90
20068;DHT22;10194;50.824;7.134;2022-08-19T04:14:21;16.50;99.90
20068;DHT22;10194;50.824;7.134;2022-08-19T04:16:50;16.50;99.90
20068;DHT22;10194;50.824;7.134;2022-08-19T04:19:17;16.50;99.90
20068;DHT22;10194;50.824;7.134;2022-08-19T04:21:46;16.50;99.90
20068;DHT22;10194;50.824;7.134;2022-08-19T04:24:14;16.40;99.90
20068;DHT22;10194;50.824;7.134;2022-08-19T04:26:41;16.40;99.90
20068;DHT22;10194;50.824;7.134;2022-08-19T04:29:09;16.40;99.90
20068;DHT22;10194;50.824;7.134;2022-08-19T04:31:40;16.40;99.90
20068;DHT22;10194;50.824;7.134;2022-08-19T04:34:09;16.40;99.90
20068;DHT22;10194;50.824;7.134;2022-08-19T04:36:37;16.40;99.90
20068;DHT22;10194;50.824;7.134;2022-08-19T04:39:11;16.40;99.90
20068;DHT22;10194;50.824;7.134;2022-08-19T04:41:39;16.30;99.90
20068;DHT22;10194;50.824;7.134;2022-08-19T04:44:23;16.30;99.90
20068;DHT22;10194;50.824;7.134;2022-08-19T04:46:50;16.40;99.90
20068;DHT22;10194;50.824;7.134;2022-08-19T04:49:19;16.40;99.90
20068;DHT22;10194;50.824;7.134;2022-08-19T04:51:47;16.40;99.90
20068;DHT22;10194;50.824;7.134;2022-08-19T04:54:16;16.40;99.90
20068;DHT22;10194;50.824;7.134;2022-08-19T04:56:43;16.50;99.90
20068;DHT22;10194;50.824;7.134;2022-08-19T04:59:09;16.40;99.90
20068;DHT22;10194;50.824;7.134;2022-08-19T05:01:36;16.50;99.90
20068;DHT22;10194;50.824;7.134;2022-08-19T05:04:04;16.50;99.90
20068;DHT22;10194;50.824;7.134;2022-08-19T05:06:32;16.50;99.90
20068;DHT22;10194;50.824;7.134;2022-08-19T05:09:01;16.50;99.90
20068;DHT22;10194;50.824;7.134;2022-08-19T05:11:33;16.60;99.90
20068;DHT22;10194;50.824;7.134;2022-08-19T05:14:03;16.60;99.90
20068;DHT22;10194;50.824;7.134;2022-08-19T05:16:30;16.70;99.90
20068;DHT22;10194;50.824;7.134;2022-08-19T05:18:56;16.80;99.90
20068;DHT22;10194;50.824;7.134;2022-08-19T05:21:42;16.80;99.90
20068;DHT22;10194;50.824;7.134;2022-08-19T05:24:43;16.90;99.90
20068;DHT22;10194;50.824;7.134;2022-08-19T05:27:09;16.90;99.90
20068;DHT22;10194;50.824;7.134;2022-08-19T05:29:35;17.00;99.90
20068;DHT22;10194;50.824;7.134;2022-08-19T05:32:05;17.00;99.90
20068;DHT22;10194;50.824;7.134;2022-08-19T05:34:34;17.10;99.90
20068;DHT22;10194;50.824;7.134;2022-08-19T05:37:02;17.20;99.90
20068;DHT22;10194;50.824;7.134;2022-08-19T05:39:32;17.10;99.90
20068;DHT22;10194;50.824;7.134;2022-08-19T05:42:03;17.10;99.90
20068;DHT22;10194;50.824;7.134;2022-08-19T05:44:33;17.20;99.90
20068;DHT22;10194;50.824;7.134;2022-08-19T05:47:04;17.30;99.90
20068;DHT22;10194;50.824;7.134;2022-08-19T05:49:32;17.30;99.90
20068;DHT22;10194;50.824;7.134;2022-08-19T05:51:58;17.30;99.90
20068;DHT22;10194;50.824;7.134;2022-08-19T05:54:27;17.30;99.90
20068;DHT22;10194;50.824;7.134;2022-08-19T05:56:53;17.50;99.90
20068;DHT22;10194;50.824;7.134;2022-08-19T05:59:20;17.50;99.90
20068;DHT22;10194;50.824;7.134;2022-08-19T06:01:47;17.50;99.90
20068;DHT22;10194;50.824;7.134;2022-08-19T06:04:20;17.50;99.90
20068;DHT22;10194;50.824;7.134;2022-08-19T06:06:48;17.60;99.90
20068;DHT22;10194;50.824;7.134;2022-08-19T06:09:19;17.60;99.90
20068;DHT22;10194;50.824;7.134;2022-08-19T06:11:51;17.70;99.90
20068;DHT22;10194;50.824;7.134;2022-08-19T06:14:28;17.80;99.90
20068;DHT22;10194;50.824;7.134;2022-08-19T06:16:56;18.00;99.90
20068;DHT22;10194;50.824;7.134;2022-08-19T06:19:23;18.20;99.90
20068;DHT22;10194;50.824;7.134;2022-08-19T06:21:54;18.40;99.90
20068;DHT22;10194;50.824;7.134;2022-08-19T06:24:22;18.60;99.90
20068;DHT22;10194;50.824;7.134;2022-08-19T06:26:50;18.50;99.90
20068;DHT22;10194;50.824;7.134;2022-08-19T06:29:20;18.60;99.90
20068;DHT22;10194;50.824;7.134;2022-08-19T06:31:49;18.70;99.90
20068;DHT22;10194;50.824;7.134;2022-08-19T06:34:17;19.00;99.90
20068;DHT22;10194;50.824;7.134;2022-08-19T06:36:49;19.20;99.90
20068;DHT22;10194;50.824;7.134;2022-08-19T06:39:23;19.50;99.90
20068;DHT22;10194;50.824;7.134;2022-08-19T06:41:53;19.80;99.90
20068;DHT22;10194;50.824;7.134;2022-08-19T06:44:23;20.10;99.90
20068;DHT22;10194;50.824;7.134;2022-08-19T06:46:51;20.20;99.90
20068;DHT22;10194;50.824;7.134;2022-08-19T06:49:17;20.30;99.90
20068;DHT22;10194;50.824;7.134;2022-08-19T06:51:48;20.50;99.90
20068;DHT22;10194;50.824;7.134;2022-08-19T06:54:16;20.50;99.90
20068;DHT22;10194;50.824;7.134;2022-08-19T06:56:43;20.60;99.90
20068;DHT22;10194;50.824;7.134;2022-08-19T06:59:13;20.60;99.90
20068;DHT22;10194;50.824;7.134;2022-08-19T07:01:46;20.70;99.90
20068;DHT22;10194;50.824;7.134;2022-08-19T07:04:19;20.80;99.90
20068;DHT22;10194;50.824;7.134;2022-08-19T07:06:48;21.00;99.90
20068;DHT22;10194;50.824;7.134;2022-08-19T07:09:17;21.10;99.90
20068;DHT22;10194;50.824;7.134;2022-08-19T07:11:51;21.20;99.90
20068;DHT22;10194;50.824;7.134;2022-08-19T07:14:21;21.20;99.90
20068;DHT22;10194;50.824;7.134;2022-08-19T07:16:49;21.20;99.90
20068;DHT22;10194;50.824;7.134;2022-08-19T07:19:18;21.20;99.90
20068;DHT22;10194;50.824;7.134;2022-08-19T07:21:46;21.30;99.90
20068;DHT22;10194;50.824;7.134;2022-08-19T07:24:13;21.50;99.90
20068;DHT22;10194;50.824;7.134;2022-08-19T07:26:42;21.60;99.90
20068;DHT22;10194;50.824;7.134;2022-08-19T07:29:09;21.70;99.90
20068;DHT22;10194;50.824;7.134;2022-08-19T07:31:36;21.70;99.90
20068;DHT22;10194;50.824;7.134;2022-08-19T07:34:07;21.90;99.90
20068;DHT22;10194;50.824;7.134;2022-08-19T07:36:35;21.90;99.90
20068;DHT22;10194;50.824;7.134;2022-08-19T07:39:06;22.10;99.90
20068;DHT22;10194;50.824;7.134;2022-08-19T07:41:35;22.30;99.90
20068;DHT22;10194;50.824;7.134;2022-08-19T07:44:03;22.40;99.90
20068;DHT22;10194;50.824;7.134;2022-08-19T07:46:31;22.40;99.90
20068;DHT22;10194;50.824;7.134;2022-08-19T07:48:59;22.20;99.90
20068;DHT22;10194;50.824;7.134;2022-08-19T07:51:26;22.30;99.90
20068;DHT22;10194;50.824;7.134;2022-08-19T07:53:53;22.20;99.90
20068;DHT22;10194;50.824;7.134;2022-08-19T07:56:20;22.40;99.90
20068;DHT22;10194;50.824;7.134;2022-08-19T07:58:48;22.50;99.90
20068;DHT22;10194;50.824;7.134;2022-08-19T08:01:22;22.80;99.90
20068;DHT22;10194;50.824;7.134;2022-08-19T08:03:51;22.80;99.90
20068;DHT22;10194;50.824;7.134;2022-08-19T08:06:37;22.60;99.90
20068;DHT22;10194;50.824;7.134;2022-08-19T08:09:27;22.80;99.90
20068;DHT22;10194;50.824;7.134;2022-08-19T08:12:02;23.00;99.90
20068;DHT22;10194;50.824;7.134;2022-08-19T08:17:12;23.60;99.90
20068;DHT22;10194;50.824;7.134;2022-08-19T08:19:40;23.90;99.90
20068;DHT22;10194;50.824;7.134;2022-08-19T08:22:07;23.90;99.90
20068;DHT22;10194;50.824;7.134;2022-08-19T08:24:54;23.90;99.90
20068;DHT22;10194;50.824;7.134;2022-08-19T08:27:20;24.10;99.90
20068;DHT22;10194;50.824;7.134;2022-08-19T08:29:45;23.90;99.90
20068;DHT22;10194;50.824;7.134;2022-08-19T08:32:11;24.20;99.90
20068;DHT22;10194;50.824;7.134;2022-08-19T08:34:37;24.50;99.90
20068;DHT22;10194;50.824;7.134;2022-08-19T08:37:03;24.70;99.90
20068;DHT22;10194;50.824;7.134;2022-08-19T08:39:29;25.20;99.90
20068;DHT22;10194;50.824;7.134;2022-08-19T08:42:14;25.20;99.90
20068;DHT22;10194;50.824;7.134;2022-08-19T08:45:03;25.00;99.90
20068;DHT22;10194;50.824;7.134;2022-08-19T08:47:35;25.10;99.90
20068;DHT22;10194;50.824;7.134;2022-08-19T08:50:04;25.10;99.90
20068;DHT22;10194;50.824;7.134;2022-08-19T08:52:36;25.10;99.90
20068;DHT22;10194;50.824;7.134;2022-08-19T08:55:11;25.40;99.90
20068;DHT22;10194;50.824;7.134;2022-08-19T09:00:19;25.10;99.90
20068;DHT22;10194;50.824;7.134;2022-08-19T09:02:50;25.20;99.90
20068;DHT22;10194;50.824;7.134;2022-08-19T09:05:16;25.40;99.90
20068;DHT22;10194;50.824;7.134;2022-08-19T09:08:43;25.50;99.90
20068;DHT22;10194;50.824;7.134;2022-08-19T09:10:57;25.60;99.90
20068;DHT22;10194;50.824;7.134;2022-08-19T09:13:31;26.10;99.90
20068;DHT22;10194;50.824;7.134;2022-08-19T09:16:05;26.00;99.90
20068;DHT22;10194;50.824;7.134;2022-08-19T09:18:48;25.40;99.90
20068;DHT22;10194;50.824;7.134;2022-08-19T09:21:20;24.90;99.90
20068;DHT22;10194;50.824;7.134;2022-08-19T09:23:51;24.60;99.90
20068;DHT22;10194;50.824;7.134;2022-08-19T09:26:22;24.90;99.90
20068;DHT22;10194;50.824;7.134;2022-08-19T09:28:53;25.00;99.90
20068;DHT22;10194;50.824;7.134;2022-08-19T09:31:22;24.80;99.90
20068;DHT22;10194;50.824;7.134;2022-08-19T09:33:52;25.00;99.90
20068;DHT22;10194;50.824;7.134;2022-08-19T09:36:27;25.30;99.90
20068;DHT22;10194;50.824;7.134;2022-08-19T09:39:04;25.30;99.90
20068;DHT22;10194;50.824;7.134;2022-08-19T09:41:31;25.60;99.90
20068;DHT22;10194;50.824;7.134;2022-08-19T09:43:58;25.80;99.90
20068;DHT22;10194;50.824;7.134;2022-08-19T09:46:26;25.90;99.90
20068;DHT22;10194;50.824;7.134;2022-08-19T09:48:54;26.20;99.90
20068;DHT22;10194;50.824;7.134;2022-08-19T09:51:23;26.20;99.90
20068;DHT22;10194;50.824;7.134;2022-08-19T09:53:51;25.90;99.90
20068;DHT22;10194;50.824;7.134;2022-08-19T09:56:20;25.80;99.90
20068;DHT22;10194;50.824;7.134;2022-08-19T09:58:48;25.90;99.90
20068;DHT22;10194;50.824;7.134;2022-08-19T10:01:22;25.90;99.90
20068;DHT22;10194;50.824;7.134;2022-08-19T10:03:51;25.80;99.60
20068;DHT22;10194;50.824;7.134;2022-08-19T10:06:23;26.00;99.90
20068;DHT22;10194;50.824;7.134;2022-08-19T10:08:51;26.00;99.90
20068;DHT22;10194;50.824;7.134;2022-08-19T10:11:18;26.00;99.90
20068;DHT22;10194;50.824;7.134;2022-08-19T10:13:46;26.00;99.90
20068;DHT22;10194;50.824;7.134;2022-08-19T10:16:16;25.80;99.90
20068;DHT22;10194;50.824;7.134;2022-08-19T10:18:45;25.40;99.90
20068;DHT22;10194;50.824;7.134;2022-08-19T10:21:17;25.80;99.90
20068;DHT22;10194;50.824;7.134;2022-08-19T10:23:49;25.80;99.90
20068;DHT22;10194;50.824;7.134;2022-08-19T10:26:21;25.80;99.90
20068;DHT22;10194;50.824;7.134;2022-08-19T10:28:48;26.00;99.90
20068;DHT22;10194;50.824;7.134;2022-08-19T10:31:17;25.90;99.90
20068;DHT22;10194;50.824;7.134;2022-08-19T10:33:49;26.20;99.90
20068;DHT22;10194;50.824;7.134;2022-08-19T10:36:21;25.80;99.90
20068;DHT22;10194;50.824;7.134;2022-08-19T10:38:51;25.60;99.90
20068;DHT22;10194;50.824;7.134;2022-08-19T10:41:21;25.50;99.90
20068;DHT22;10194;50.824;7.134;2022-08-19T10:43:52;25.50;99.90
20068;DHT22;10194;50.824;7.134;2022-08-19T10:46:21;25.70;99.90
20068;DHT22;10194;50.824;7.134;2022-08-19T10:48:49;25.80;99.90
20068;DHT22;10194;50.824;7.134;2022-08-19T10:51:16;25.70;99.90
20068;DHT22;10194;50.824;7.134;2022-08-19T10:54:01;25.80;99.90
20068;DHT22;10194;50.824;7.134;2022-08-19T10:56:28;25.60;99.80
20068;DHT22;10194;50.824;7.134;2022-08-19T10:59:13;25.50;99.80
20068;DHT22;10194;50.824;7.134;2022-08-19T11:01:42;25.60;99.90
20068;DHT22;10194;50.824;7.134;2022-08-19T11:04:09;25.50;99.80
20068;DHT22;10194;50.824;7.134;2022-08-19T11:06:39;25.30;99.90
20068;DHT22;10194;50.824;7.134;2022-08-19T11:09:07;25.10;99.90
20068;DHT22;10194;50.824;7.134;2022-08-19T11:11:34;25.30;99.50
20068;DHT22;10194;50.824;7.134;2022-08-19T11:14:06;25.50;98.90
20068;DHT22;10194;50.824;7.134;2022-08-19T11:16:38;25.30;99.20
20068;DHT22;10194;50.824;7.134;2022-08-19T11:19:06;24.90;99.90
20068;DHT22;10194;50.824;7.134;2022-08-19T11:21:39;24.90;99.90
20068;DHT22;10194;50.824;7.134;2022-08-19T11:24:10;25.20;99.90
20068;DHT22;10194;50.824;7.134;2022-08-19T11:26:40;25.50;99.40
20068;DHT22;10194;50.824;7.134;2022-08-19T11:29:08;25.40;98.50
20068;DHT22;10194;50.824;7.134;2022-08-19T11:31:41;25.30;99.20
20068;DHT22;10194;50.824;7.134;2022-08-19T11:34:13;25.50;97.90
20068;DHT22;10194;50.824;7.134;2022-08-19T11:36:46;25.50;98.00
20068;DHT22;10194;50.824;7.134;2022-08-19T11:39:22;25.70;98.40
20068;DHT22;10194;50.824;7.134;2022-08-19T11:41:48;26.20;98.20
20068;DHT22;10194;50.824;7.134;2022-08-19T11:44:14;26.40;97.10
20068;DHT22;10194;50.824;7.134;2022-08-19T11:46:41;26.70;97.00
20068;DHT22;10194;50.824;7.134;2022-08-19T11:49:15;26.70;96.40
20068;DHT22;10194;50.824;7.134;2022-08-19T11:51:44;26.60;96.10
20068;DHT22;10194;50.824;7.134;2022-08-19T11:54:12;26.20;97.20
20068;DHT22;10194;50.824;7.134;2022-08-19T11:56:39;26.00;96.30
20068;DHT22;10194;50.824;7.134;2022-08-19T11:59:05;26.00;97.00
20068;DHT22;10194;50.824;7.134;2022-08-19T12:01:36;26.10;97.00
20068;DHT22;10194;50.824;7.134;2022-08-19T12:04:02;26.30;95.90
20068;DHT22;10194;50.824;7.134;2022-08-19T12:06:32;26.30;96.60
20068;DHT22;10194;50.824;7.134;2022-08-19T12:09:04;26.20;96.20
20068;DHT22;10194;50.824;7.134;2022-08-19T12:11:32;25.80;96.80
20068;DHT22;10194;50.824;7.134;2022-08-19T12:13:58;25.70;96.70
20068;DHT22;10194;50.824;7.134;2022-08-19T12:16:27;25.70;97.10
20068;DHT22;10194;50.824;7.134;2022-08-19T12:18:55;25.50;96.30
20068;DHT22;10194;50.824;7.134;2022-08-19T12:21:24;25.40;97.10
20068;DHT22;10194;50.824;7.134;2022-08-19T12:23:55;25.50;96.90
20068;DHT22;10194;50.824;7.134;2022-08-19T12:26:23;25.60;96.60
20068;DHT22;10194;50.824;7.134;2022-08-19T12:28:50;25.80;96.30
20068;DHT22;10194;50.824;7.134;2022-08-19T12:31:17;26.10;96.20
20068;DHT22;10194;50.824;7.134;2022-08-19T12:33:44;26.30;95.40
20068;DHT22;10194;50.824;7.134;2022-08-19T12:36:13;26.60;94.60
20068;DHT22;10194;50.824;7.134;2022-08-19T12:38:41;26.30;94.80
20068;DHT22;10194;50.824;7.134;2022-08-19T12:41:12;26.40;94.80
20068;DHT22;10194;50.824;7.134;2022-08-19T12:43:39;26.50;94.10
20068;DHT22;10194;50.824;7.134;2022-08-19T12:46:07;26.40;94.10
20068;DHT22;10194;50.824;7.134;2022-08-19T12:48:33;26.20;94.60
20068;DHT22;10194;50.824;7.134;2022-08-19T12:50:59;25.80;95.00
20068;DHT22;10194;50.824;7.134;2022-08-19T12:53:26;25.80;95.90
20068;DHT22;10194;50.824;7.134;2022-08-19T12:55:58;25.60;95.50
20068;DHT22;10194;50.824;7.134;2022-08-19T12:58:25;25.50;95.80
20068;DHT22;10194;50.824;7.134;2022-08-19T13:00:52;25.70;95.50
20068;DHT22;10194;50.824;7.134;2022-08-19T13:03:18;25.70;95.60
20068;DHT22;10194;50.824;7.134;2022-08-19T13:05:43;25.90;95.10
20068;DHT22;10194;50.824;7.134;2022-08-19T13:08:09;26.00;93.80
20068;DHT22;10194;50.824;7.134;2022-08-19T13:10:37;26.00;93.90
20068;DHT22;10194;50.824;7.134;2022-08-19T13:13:08;26.20;93.80
20068;DHT22;10194;50.824;7.134;2022-08-19T13:15:37;26.40;93.20
20068;DHT22;10194;50.824;7.134;2022-08-19T13:18:06;26.50;92.90
20068;DHT22;10194;50.824;7.134;2022-08-19T13:20:35;26.60;91.70
20068;DHT22;10194;50.824;7.134;2022-08-19T13:23:02;26.50;91.80
20068;DHT22;10194;50.824;7.134;2022-08-19T13:25:29;26.30;91.20
20068;DHT22;10194;50.824;7.134;2022-08-19T13:27:55;26.10;91.50
20068;DHT22;10194;50.824;7.134;2022-08-19T13:30:21;26.20;91.20
20068;DHT22;10194;50.824;7.134;2022-08-19T13:33:06;26.30;91.70
20068;DHT22;10194;50.824;7.134;2022-08-19T13:35:58;26.30;90.90
20068;DHT22;10194;50.824;7.134;2022-08-19T13:38:26;26.50;90.10
20068;DHT22;10194;50.824;7.134;2022-08-19T13:40:54;26.60;90.00
20068;DHT22;10194;50.824;7.134;2022-08-19T13:43:23;26.70;90.00
20068;DHT22;10194;50.824;7.134;2022-08-19T13:45:52;26.70;89.50
20068;DHT22;10194;50.824;7.134;2022-08-19T13:48:20;26.70;90.80
20068;DHT22;10194;50.824;7.134;2022-08-19T13:50:47;26.70;90.90
20068;DHT22;10194;50.824;7.134;2022-08-19T13:53:13;26.80;90.90
20068;DHT22;10194;50.824;7.134;2022-08-19T13:55:41;26.60;91.00
20068;DHT22;10194;50.824;7.134;2022-08-19T13:58:08;26.60;91.00
20068;DHT22;10194;50.824;7.134;2022-08-19T14:00:40;26.70;91.20
20068;DHT22;10194;50.824;7.134;2022-08-19T14:03:08;26.60;91.50
20068;DHT22;10194;50.824;7.134;2022-08-19T14:05:35;26.60;91.00
20068;DHT22;10194;50.824;7.134;2022-08-19T14:08:01;26.60;90.20
20068;DHT22;10194;50.824;7.134;2022-08-19T14:10:27;26.40;88.00
20068;DHT22;10194;50.824;7.134;2022-08-19T14:12:57;26.30;88.80
20068;DHT22;10194;50.824;7.134;2022-08-19T14:15:26;26.40;88.90
20068;DHT22;10194;50.824;7.134;2022-08-19T14:17:52;26.50;89.20
20068;DHT22;10194;50.824;7.134;2022-08-19T14:20:19;26.50;89.50
20068;DHT22;10194;50.824;7.134;2022-08-19T14:22:46;26.70;90.30
20068;DHT22;10194;50.824;7.134;2022-08-19T14:25:16;26.70;88.00
20068;DHT22;10194;50.824;7.134;2022-08-19T14:27:44;26.60;87.70
20068;DHT22;10194;50.824;7.134;2022-08-19T14:30:15;26.70;88.80
20068;DHT22;10194;50.824;7.134;2022-08-19T14:32:42;27.00;87.40
20068;DHT22;10194;50.824;7.134;2022-08-19T14:35:08;27.10;85.50
20068;DHT22;10194;50.824;7.134;2022-08-19T14:37:35;27.00;84.30
20068;DHT22;10194;50.824;7.134;2022-08-19T14:40:02;27.00;85.00
20068;DHT22;10194;50.824;7.134;2022-08-19T14:42:29;26.70;84.30
20068;DHT22;10194;50.824;7.134;2022-08-19T14:44:58;26.70;84.40
20068;DHT22;10194;50.824;7.134;2022-08-19T14:47:24;26.70;85.30
20068;DHT22;10194;50.824;7.134;2022-08-19T14:49:53;26.90;85.20
20068;DHT22;10194;50.824;7.134;2022-08-19T14:52:19;26.90;84.80
20068;DHT22;10194;50.824;7.134;2022-08-19T14:54:45;26.80;84.70
20068;DHT22;10194;50.824;7.134;2022-08-19T14:57:12;26.90;84.60
20068;DHT22;10194;50.824;7.134;2022-08-19T14:59:40;26.90;83.60
20068;DHT22;10194;50.824;7.134;2022-08-19T15:02:06;26.80;84.90
20068;DHT22;10194;50.824;7.134;2022-08-19T15:04:32;26.80;84.90
20068;DHT22;10194;50.824;7.134;2022-08-19T15:06:58;26.90;85.10
20068;DHT22;10194;50.824;7.134;2022-08-19T15:09:23;26.70;84.80
20068;DHT22;10194;50.824;7.134;2022-08-19T15:11:49;26.50;85.40
20068;DHT22;10194;50.824;7.134;2022-08-19T15:14:16;26.60;86.30
20068;DHT22;10194;50.824;7.134;2022-08-19T15:16:43;26.50;86.30
20068;DHT22;10194;50.824;7.134;2022-08-19T15:19:09;26.30;86.80
20068;DHT22;10194;50.824;7.134;2022-08-19T15:21:35;26.20;87.70
20068;DHT22;10194;50.824;7.134;2022-08-19T15:24:02;26.20;88.10
20068;DHT22;10194;50.824;7.134;2022-08-19T15:26:28;26.20;87.80
20068;DHT22;10194;50.824;7.134;2022-08-19T15:29:00;26.10;88.60
20068;DHT22;10194;50.824;7.134;2022-08-19T15:31:27;26.30;88.80
20068;DHT22;10194;50.824;7.134;2022-08-19T15:33:54;26.30;86.60
20068;DHT22;10194;50.824;7.134;2022-08-19T15:36:23;26.30;86.00
20068;DHT22;10194;50.824;7.134;2022-08-19T15:38:50;26.40;86.20
20068;DHT22;10194;50.824;7.134;2022-08-19T15:41:28;26.50;86.20
20068;DHT22;10194;50.824;7.134;2022-08-19T15:43:56;26.70;84.60
20068;DHT22;10194;50.824;7.134;2022-08-19T15:46:30;26.80;83.30
20068;DHT22;10194;50.824;7.134;2022-08-19T15:48:58;26.50;82.70
20068;DHT22;10194;50.824;7.134;2022-08-19T15:51:25;26.30;84.30
20068;DHT22;10194;50.824;7.134;2022-08-19T15:53:54;26.30;84.10